Time;durP1;ratioP1;P1;durP2;ratioP2;P2;SDS_P1;SDS_P2;PMS_P1;PMS_P2;Temp;Humidity;BMP_temperature;BMP_pressure;BME280_temperature;BME280_humidity;BME280_pressure;Samples;Min_cycle;Max_cycle;Signal;HPM_P1;HPM_P2
2023/04/03 00:00:34;;;;;;;;;;;;;;;;;;5135144;27;2113;-40
2023/04/03 00:03:01;;;;;;;;;;;;;;;;;;5135120;27;1897;-39
2023/04/03 00:05:28;;;;;;;;;;;;;;;;;;5135026;27;1959;-39
2023/04/03 00:07:55;;;;;;;;;;;;;;;;;;5134878;27;1979;-40
2023/04/03 00:10:23;;;;;;;;;;;;;;;;;;5135017;27;2027;-40
2023/04/03 00:12:50;;;;;;;;;;;;;;;;;;5134618;27;1962;-39
2023/04/03 00:15:18;;;;;;;;;;;;;;;;;;5134557;27;1959;-39
2023/04/03 00:17:45;;;;;;;;;;;;;;;;;;5134884;27;1900;-46
2023/04/03 00:20:13;;;;;;;;;;;;;;;;;;5134591;27;2103;-40
2023/04/03 00:22:40;;;;;;;;;;;;;;;;;;5135082;27;1820;-41
2023/04/03 00:25:08;;;;;;;;;;;;;;;;;;5134241;27;1845;-43
2023/04/03 00:27:36;;;;;;;;;;;;;;;;;;5134483;27;1629;-41
2023/04/03 00:30:04;;;;;;;;;;;;;;;;;;5134809;27;1947;-41
2023/04/03 00:32:31;;;;;;;;;;;;;;;;;;5134679;27;1858;-42
2023/04/03 00:34:59;;;;;;;;;;;;;;;;;;5134495;27;2075;-39
2023/04/03 00:37:26;;;;;;;;;;;;;;;;;;5134267;27;2487;-40
2023/04/03 00:39:54;;;;;;;;;;;;;;;;;;5115681;27;1990;-40
2023/04/03 00:42:22;;;;;;;;;;;;;;;;;;5133825;27;1776;-40
2023/04/03 00:44:49;;;;;;;;;;;;;;;;;;5115664;27;2050;-40
2023/04/03 00:47:17;;;;;;;;;;;;;;;;;;5134018;27;1873;-40
2023/04/03 00:49:45;;;;;;;;;;;;;;;;;;5134082;27;2021;-40
2023/04/03 00:52:15;;;;;;;;;;;;;;;;;;5134142;27;2116;-40
2023/04/03 00:54:43;;;;;;;;;;;;;;;;;;5134068;27;1918;-40
2023/04/03 00:57:11;;;;;;;;;;;;;;;;;;5150633;27;1912;-40
2023/04/03 00:59:40;;;;;;;;;;;;;;;;;;5154948;27;2218;-40
2023/04/03 01:02:07;;;;;;;;;;;;;;;;;;5135975;27;1988;-39
2023/04/03 01:04:40;;;;;;;;;;;;;;;;;;5154779;27;1852;-39
2023/04/03 01:07:10;;;;;;;;;;;;;;;;;;5154207;27;1433;-40
2023/04/03 01:09:38;;;;;;;;;;;;;;;;;;5135756;27;2098;-40
2023/04/03 01:12:15;;;;;;;;;;;;;;;;;;5135913;27;2040;-40
2023/04/03 01:14:49;;;;;;;;;;;;;;;;;;5135761;27;1949;-40
2023/04/03 01:17:32;;;;;;;;;;;;;;;;;;5135523;27;1837;-40
2023/04/03 01:20:11;;;;;;;;;;;;;;;;;;5154226;27;1922;-40
2023/04/03 01:22:44;;;;;;;;;;;;;;;;;;5154176;27;1984;-45
2023/04/03 01:25:12;;;;;;;;;;;;;;;;;;5154252;27;2061;-40
2023/04/03 01:27:39;;;;;;;;;;;;;;;;;;5135387;27;2527;-40
2023/04/03 01:30:07;;;;;;;;;;;;;;;;;;5154056;27;2137;-39
2023/04/03 01:32:35;;;;;;;;;;;;;;;;;;5135539;27;1903;-39
2023/04/03 01:35:03;;;;;;;;;;;;;;;;;;5154171;27;2076;-41
2023/04/03 01:37:30;;;;;;;;;;;;;;;;;;5131512;27;2003;-40
2023/04/03 01:39:58;;;;;;;;;;;;;;;;;;5133140;27;2019;-39
2023/04/03 01:42:25;;;;;;;;;;;;;;;;;;5132909;27;2107;-40
2023/04/03 01:44:53;;;;;;;;;;;;;;;;;;5132950;27;1784;-40
2023/04/03 01:47:23;;;;;;;;;;;;;;;;;;5132779;27;1952;-40
2023/04/03 01:49:50;;;;;;;;;;;;;;;;;;5132973;27;2067;-40
2023/04/03 01:52:18;;;;;;;;;;;;;;;;;;5132511;27;1964;-40
2023/04/03 01:54:45;;;;;;;;;;;;;;;;;;5113652;27;1959;-40
2023/04/03 01:57:14;;;;;;;;;;;;;;;;;;5149947;27;2066;-39
2023/04/03 01:59:43;;;;;;;;;;;;;;;;;;5134828;27;1992;-41
2023/04/03 02:02:12;;;;;;;;;;;;;;;;;;5134738;27;1915;-48
2023/04/03 02:04:39;;;;;;;;;;;;;;;;;;5153266;27;1943;-39
2023/04/03 02:07:06;;;;;;;;;;;;;;;;;;5153286;27;1978;-40
2023/04/03 02:09:34;;;;;;;;;;;;;;;;;;5153399;27;1958;-44
2023/04/03 02:12:02;;;;;;;;;;;;;;;;;;5153582;27;1996;-40
2023/04/03 02:14:30;;;;;;;;;;;;;;;;;;5134770;27;2105;-40
2023/04/03 02:17:00;;;;;;;;;;;;;;;;;;5151801;27;1991;-40
2023/04/03 02:19:28;;;;;;;;;;;;;;;;;;5153232;27;1915;-40
2023/04/03 02:21:56;;;;;;;;;;;;;;;;;;5134354;27;2029;-40
2023/04/03 02:24:23;;;;;;;;;;;;;;;;;;5153059;27;1982;-40
2023/04/03 02:26:50;;;;;;;;;;;;;;;;;;5153175;27;1848;-39
2023/04/03 02:29:18;;;;;;;;;;;;;;;;;;5131202;27;2064;-39
2023/04/03 02:31:46;;;;;;;;;;;;;;;;;;5132442;27;1959;-40
2023/04/03 02:34:14;;;;;;;;;;;;;;;;;;5113756;27;2000;-41
2023/04/03 02:36:42;;;;;;;;;;;;;;;;;;5113710;27;2028;-44
2023/04/03 02:39:11;;;;;;;;;;;;;;;;;;5113794;28;2073;-42
2023/04/03 02:41:38;;;;;;;;;;;;;;;;;;5132234;27;1988;-43
2023/04/03 02:44:12;;;;;;;;;;;;;;;;;;5113638;27;1872;-40
2023/04/03 02:46:39;;;;;;;;;;;;;;;;;;5131751;27;1993;-40
2023/04/03 02:49:07;;;;;;;;;;;;;;;;;;5131955;27;1924;-40
2023/04/03 02:51:34;;;;;;;;;;;;;;;;;;5132286;27;1890;-41
2023/04/03 02:54:02;;;;;;;;;;;;;;;;;;5113822;28;1980;-40
2023/04/03 02:56:32;;;;;;;;;;;;;;;;;;5121471;28;2416;-54
2023/04/03 02:59:00;;;;;;;;;;;;;;;;;;5113727;28;1924;-42
2023/04/03 03:01:31;;;;;;;;;;;;;;;;;;5113346;28;1945;-40
2023/04/03 03:04:01;;;;;;;;;;;;;;;;;;5113495;28;1967;-40
2023/04/03 03:06:29;;;;;;;;;;;;;;;;;;5134646;27;1815;-40
2023/04/03 03:08:56;;;;;;;;;;;;;;;;;;5136101;27;1943;-40
2023/04/03 03:11:25;;;;;;;;;;;;;;;;;;5136140;27;2024;-41
2023/04/03 03:13:52;;;;;;;;;;;;;;;;;;5136048;27;1990;-40
2023/04/03 03:16:20;;;;;;;;;;;;;;;;;;5136037;27;1874;-40
2023/04/03 03:18:47;;;;;;;;;;;;;;;;;;5117483;27;1892;-40
2023/04/03 03:21:14;;;;;;;;;;;;;;;;;;5117292;27;2072;-54
2023/04/03 03:23:41;;;;;;;;;;;;;;;;;;5117551;27;1865;-40
2023/04/03 03:26:10;;;;;;;;;;;;;;;;;;5125830;27;2098;-47
2023/04/03 03:28:38;;;;;;;;;;;;;;;;;;5137775;27;2390;-40
2023/04/03 03:31:07;;;;;;;;;;;;;;;;;;5156741;27;1769;-39
2023/04/03 03:33:36;;;;;;;;;;;;;;;;;;5137948;27;2280;-40
2023/04/03 03:36:04;;;;;;;;;;;;;;;;;;5156626;27;1968;-40
2023/04/03 03:38:32;;;;;;;;;;;;;;;;;;5137854;27;2064;-40
2023/04/03 03:41:01;;;;;;;;;;;;;;;;;;5137422;27;2022;-40
2023/04/03 03:43:30;;;;;;;;;;;;;;;;;;5137693;27;2057;-41
2023/04/03 03:45:57;;;;;;;;;;;;;;;;;;5137258;27;2051;-40
2023/04/03 03:48:26;;;;;;;;;;;;;;;;;;5137625;27;1870;-40
2023/04/03 03:50:53;;;;;;;;;;;;;;;;;;5137544;27;2156;-51
2023/04/03 03:53:24;;;;;;;;;;;;;;;;;;5137792;27;1967;-40
2023/04/03 03:55:55;;;;;;;;;;;;;;;;;;5149419;27;2230;-41
2023/04/03 03:58:25;;;;;;;;;;;;;;;;;;5116663;27;2049;-40
2023/04/03 04:00:52;;;;;;;;;;;;;;;;;;5135242;27;1481;-39
2023/04/03 04:03:20;;;;;;;;;;;;;;;;;;5134471;27;1897;-44
2023/04/03 04:05:50;;;;;;;;;;;;;;;;;;5103386;27;2236;-40
2023/04/03 04:08:17;;;;;;;;;;;;;;;;;;5116326;27;2012;-40
2023/04/03 04:10:45;;;;;;;;;;;;;;;;;;5116716;27;2118;-41
2023/04/03 04:13:14;;;;;;;;;;;;;;;;;;5116370;27;2401;-42
2023/04/03 04:15:42;;;;;;;;;;;;;;;;;;5116368;27;2075;-44
2023/04/03 04:18:10;;;;;;;;;;;;;;;;;;5115451;27;1973;-40
2023/04/03 04:20:40;;;;;;;;;;;;;;;;;;5116249;27;2024;-40
2023/04/03 04:23:08;;;;;;;;;;;;;;;;;;5116319;27;1893;-39
2023/04/03 04:25:37;;;;;;;;;;;;;;;;;;5116231;27;2001;-39
2023/04/03 04:28:06;;;;;;;;;;;;;;;;;;5134805;27;2214;-41
2023/04/03 04:30:33;;;;;;;;;;;;;;;;;;5116577;27;1682;-39
2023/04/03 04:33:01;;;;;;;;;;;;;;;;;;5115961;27;2091;-41
2023/04/03 04:35:31;;;;;;;;;;;;;;;;;;5115971;27;2093;-44
2023/04/03 04:38:00;;;;;;;;;;;;;;;;;;5115882;27;2137;-39
2023/04/03 04:40:27;;;;;;;;;;;;;;;;;;5099111;27;1939;-41
2023/04/03 04:42:55;;;;;;;;;;;;;;;;;;5116003;27;2195;-45
2023/04/03 04:45:22;;;;;;;;;;;;;;;;;;5115930;27;1943;-41
2023/04/03 04:47:51;;;;;;;;;;;;;;;;;;5115572;27;1931;-40
2023/04/03 04:50:19;;;;;;;;;;;;;;;;;;5115566;27;2253;-39
2023/04/03 04:52:47;;;;;;;;;;;;;;;;;;5134461;27;1909;-40
2023/04/03 04:55:14;;;;;;;;;;;;;;;;;;5115973;27;1979;-40
2023/04/03 04:57:41;;;;;;;;;;;;;;;;;;5154791;27;2005;-40
2023/04/03 05:00:09;;;;;;;;;;;;;;;;;;5155361;27;2022;-40
2023/04/03 05:02:36;;;;;;;;;;;;;;;;;;5154874;27;1845;-41
2023/04/03 05:05:03;;;;;;;;;;;;;;;;;;5155034;27;1830;-40
2023/04/03 05:07:32;;;;;;;;;;;;;;;;;;5135976;27;2035;-40
2023/04/03 05:10:02;;;;;;;;;;;;;;;;;;5154902;27;2243;-39
2023/04/03 05:12:30;;;;;;;;;;;;;;;;;;5135989;27;1894;-39
2023/04/03 05:15:00;;;;;;;;;;;;;;;;;;5135717;27;2041;-42
2023/04/03 05:17:29;;;;;;;;;;;;;;;;;;5135564;27;2183;-40
2023/04/03 05:19:57;;;;;;;;;;;;;;;;;;5135889;27;2121;-40
2023/04/03 05:22:26;;;;;;;;;;;;;;;;;;5135766;27;2108;-40
2023/04/03 05:25:00;;;;;;;;;;;;;;;;;;5154183;27;2041;-40
2023/04/03 05:27:30;;;;;;;;;;;;;;;;;;5135178;27;2056;-40
2023/04/03 05:29:59;;;;;;;;;;;;;;;;;;5134526;27;2052;-40
2023/04/03 05:32:28;;;;;;;;;;;;;;;;;;5135460;27;2198;-40
2023/04/03 05:35:08;;;;;;;;;;;;;;;;;;5135321;27;2280;-56
2023/04/03 05:37:36;;;;;;;;;;;;;;;;;;5135507;27;1850;-40
2023/04/03 05:40:04;;;;;;;;;;;;;;;;;;5154161;27;1823;-39
2023/04/03 05:42:32;;;;;;;;;;;;;;;;;;5135422;27;2215;-40
2023/04/03 05:45:00;;;;;;;;;;;;;;;;;;5153659;27;2076;-41
2023/04/03 05:47:27;;;;;;;;;;;;;;;;;;5134689;27;1919;-44
2023/04/03 05:49:55;;;;;;;;;;;;;;;;;;5154254;27;1978;-40
2023/04/03 05:52:35;;;;;;;;;;;;;;;;;;5153516;27;1828;-40
2023/04/03 05:55:05;;;;;;;;;;;;;;;;;;5153833;27;1913;-40
2023/04/03 05:57:34;;;;;;;;;;;;;;;;;;5151905;27;1662;-54
2023/04/03 06:00:01;;;;;;;;;;;;;;;;;;5135034;27;2061;-56
2023/04/03 06:02:29;;;;;;;;;;;;;;;;;;5153580;27;2042;-40
2023/04/03 06:04:57;;;;;;;;;;;;;;;;;;5134730;27;1956;-40
2023/04/03 06:07:27;;;;;;;;;;;;;;;;;;5153519;27;2027;-40
2023/04/03 06:09:57;;;;;;;;;;;;;;;;;;5153411;27;1811;-40
2023/04/03 06:12:24;;;;;;;;;;;;;;;;;;5134602;27;2035;-40
2023/04/03 06:14:52;;;;;;;;;;;;;;;;;;5153321;27;2026;-43
2023/04/03 06:17:19;;;;;;;;;;;;;;;;;;5134597;27;1874;-49
2023/04/03 06:19:47;;;;;;;;;;;;;;;;;;5134731;27;1957;-48
2023/04/03 06:22:15;;;;;;;;;;;;;;;;;;5134626;27;2176;-50
2023/04/03 06:24:43;;;;;;;;;;;;;;;;;;5153107;27;2139;-45
2023/04/03 06:27:11;;;;;;;;;;;;;;;;;;5153132;27;2002;-48
2023/04/03 06:29:38;;;;;;;;;;;;;;;;;;5153110;27;2011;-42
2023/04/03 06:32:05;;;;;;;;;;;;;;;;;;5153012;27;1844;-43
2023/04/03 06:34:33;;;;;;;;;;;;;;;;;;5153010;27;2035;-41
2023/04/03 06:37:00;;;;;;;;;;;;;;;;;;5153079;27;2089;-41
2023/04/03 06:39:27;;;;;;;;;;;;;;;;;;5152906;27;2108;-40
2023/04/03 06:41:55;;;;;;;;;;;;;;;;;;5143566;27;2087;-42
2023/04/03 06:44:34;;;;;;;;;;;;;;;;;;5113654;27;2001;-50
2023/04/03 06:47:01;;;;;;;;;;;;;;;;;;5131966;27;1929;-40
2023/04/03 06:49:28;;;;;;;;;;;;;;;;;;5131956;27;2186;-40
2023/04/03 06:51:56;;;;;;;;;;;;;;;;;;5132441;27;2001;-45
2023/04/03 06:54:23;;;;;;;;;;;;;;;;;;5131969;27;2054;-40
2023/04/03 06:56:50;;;;;;;;;;;;;;;;;;5118640;28;2097;-40
2023/04/03 06:59:18;;;;;;;;;;;;;;;;;;5132086;28;1806;-40
2023/04/03 07:01:46;;;;;;;;;;;;;;;;;;5113456;27;2117;-40
2023/04/03 07:04:13;;;;;;;;;;;;;;;;;;5132103;28;1842;-41
2023/04/03 07:06:41;;;;;;;;;;;;;;;;;;5132019;27;2008;-41
2023/04/03 07:09:09;;;;;;;;;;;;;;;;;;5132155;27;1910;-42
2023/04/03 07:11:36;;;;;;;;;;;;;;;;;;5131772;28;1989;-40
2023/04/03 07:14:03;;;;;;;;;;;;;;;;;;5131661;28;2064;-40
2023/04/03 07:16:30;;;;;;;;;;;;;;;;;;5132129;27;2023;-41
2023/04/03 07:18:58;;;;;;;;;;;;;;;;;;5131654;27;2215;-40
2023/04/03 07:21:25;;;;;;;;;;;;;;;;;;5132003;28;2298;-42
2023/04/03 07:23:54;;;;;;;;;;;;;;;;;;5131733;28;2032;-42
2023/04/03 07:26:22;;;;;;;;;;;;;;;;;;5131418;28;1990;-50
2023/04/03 07:28:49;;;;;;;;;;;;;;;;;;5132073;27;1995;-40
2023/04/03 07:31:18;;;;;;;;;;;;;;;;;;5131768;27;2315;-40
2023/04/03 07:33:45;;;;;;;;;;;;;;;;;;5131767;28;2097;-42
2023/04/03 07:36:16;;;;;;;;;;;;;;;;;;5131813;28;1972;-42
2023/04/03 07:38:44;;;;;;;;;;;;;;;;;;5131830;27;1944;-41
2023/04/03 07:41:14;;;;;;;;;;;;;;;;;;5131992;27;1909;-42
2023/04/03 07:43:42;;;;;;;;;;;;;;;;;;5132087;28;2254;-43
2023/04/03 07:46:09;;;;;;;;;;;;;;;;;;5131517;28;1880;-41
2023/04/03 07:48:36;;;;;;;;;;;;;;;;;;5131466;27;1969;-41
2023/04/03 07:51:04;;;;;;;;;;;;;;;;;;5131256;27;2325;-46
2023/04/03 07:53:31;;;;;;;;;;;;;;;;;;5134270;27;1822;-45
2023/04/03 07:55:59;;;;;;;;;;;;;;;;;;5141933;27;1978;-58
2023/04/03 07:58:26;;;;;;;;;;;;;;;;;;5155584;27;2010;-43
2023/04/03 08:00:53;;;;;;;;;;;;;;;;;;5156098;27;2120;-42
2023/04/03 08:03:21;;;;;;;;;;;;;;;;;;5155931;27;2028;-41
2023/04/03 08:05:51;;;;;;;;;;;;;;;;;;5155822;27;1846;-41
2023/04/03 08:08:20;;;;;;;;;;;;;;;;;;5155652;27;1924;-42
2023/04/03 08:10:51;;;;;;;;;;;;;;;;;;5155863;27;2062;-48
2023/04/03 08:13:18;;;;;;;;;;;;;;;;;;5155841;27;1438;-41
2023/04/03 08:15:46;;;;;;;;;;;;;;;;;;5155587;27;1981;-43
2023/04/03 08:18:14;;;;;;;;;;;;;;;;;;5155644;27;1874;-42
2023/04/03 08:20:42;;;;;;;;;;;;;;;;;;5155872;27;2090;-41
2023/04/03 08:23:10;;;;;;;;;;;;;;;;;;5155382;27;2021;-43
2023/04/03 08:25:37;;;;;;;;;;;;;;;;;;5155485;27;2056;-41
2023/04/03 08:28:05;;;;;;;;;;;;;;;;;;5155501;27;2161;-41
2023/04/03 08:30:34;;;;;;;;;;;;;;;;;;5155353;27;1873;-41
2023/04/03 08:33:02;;;;;;;;;;;;;;;;;;5155158;27;1996;-48
2023/04/03 08:35:29;;;;;;;;;;;;;;;;;;5155385;27;1955;-47
2023/04/03 08:37:57;;;;;;;;;;;;;;;;;;5154329;27;2216;-41
2023/04/03 08:40:24;;;;;;;;;;;;;;;;;;5155229;27;1913;-39
2023/04/03 08:43:10;;;;;;;;;;;;;;;;;;5155274;27;1771;-47
2023/04/03 08:45:38;;;;;;;;;;;;;;;;;;5155129;27;2050;-39
2023/04/03 08:48:19;;;;;;;;;;;;;;;;;;5154782;27;1819;-44
2023/04/03 08:50:48;;;;;;;;;;;;;;;;;;5154999;27;1856;-41
2023/04/03 08:53:21;;;;;;;;;;;;;;;;;;5155146;27;1896;-42
2023/04/03 08:55:53;;;;;;;;;;;;;;;;;;5149327;27;2041;-44
2023/04/03 08:58:20;;;;;;;;;;;;;;;;;;5133993;27;1988;-42
2023/04/03 09:00:49;;;;;;;;;;;;;;;;;;5134058;27;1896;-41
2023/04/03 09:03:19;;;;;;;;;;;;;;;;;;5133950;27;1816;-47
2023/04/03 09:06:01;;;;;;;;;;;;;;;;;;5134263;27;1834;-41
2023/04/03 09:08:30;;;;;;;;;;;;;;;;;;5133688;27;1796;-40
2023/04/03 09:11:13;;;;;;;;;;;;;;;;;;5133985;27;1782;-41
2023/04/03 09:13:57;;;;;;;;;;;;;;;;;;5133779;27;1962;-42
2023/04/03 09:16:47;;;;;;;;;;;;;;;;;;5133597;27;1906;-44
2023/04/03 09:19:30;;;;;;;;;;;;;;;;;;5126308;27;1719;-54
2023/04/03 09:21:59;;;;;;;;;;;;;;;;;;5133718;27;1819;-41
2023/04/03 09:24:27;;;;;;;;;;;;;;;;;;5133639;27;2006;-41
2023/04/03 09:26:59;;;;;;;;;;;;;;;;;;5133607;27;2081;-43
2023/04/03 09:29:26;;;;;;;;;;;;;;;;;;5133489;27;1805;-41
2023/04/03 09:31:58;;;;;;;;;;;;;;;;;;5133470;27;1876;-42
2023/04/03 09:34:27;;;;;;;;;;;;;;;;;;5133309;27;2110;-41
2023/04/03 09:36:59;;;;;;;;;;;;;;;;;;5133455;27;2074;-47
2023/04/03 09:39:28;;;;;;;;;;;;;;;;;;5133293;27;1935;-44
2023/04/03 09:41:56;;;;;;;;;;;;;;;;;;5133608;27;2015;-41
2023/04/03 09:44:25;;;;;;;;;;;;;;;;;;5132963;27;1980;-41
2023/04/03 09:46:52;;;;;;;;;;;;;;;;;;5133159;27;1977;-53
2023/04/03 09:49:20;;;;;;;;;;;;;;;;;;5133137;27;2076;-41
2023/04/03 09:51:47;;;;;;;;;;;;;;;;;;5133759;27;2030;-41
2023/04/03 09:54:25;;;;;;;;;;;;;;;;;;5132813;27;1849;-40
2023/04/03 09:56:53;;;;;;;;;;;;;;;;;;5132641;27;2070;-41
2023/04/03 09:59:21;;;;;;;;;;;;;;;;;;5132779;27;1773;-41
2023/04/03 10:02:20;;;;;;;;;;;;;;;;;;5133003;27;2042;-41
2023/04/03 10:04:48;;;;;;;;;;;;;;;;;;5132827;27;1916;-55
2023/04/03 10:07:29;;;;;;;;;;;;;;;;;;5132612;27;1943;-42
2023/04/03 10:10:19;;;;;;;;;;;;;;;;;;5132512;27;2181;-42
2023/04/03 10:12:47;;;;;;;;;;;;;;;;;;5129883;27;2112;-42
2023/04/03 10:15:19;;;;;;;;;;;;;;;;;;5131784;27;1927;-40
2023/04/03 10:17:53;;;;;;;;;;;;;;;;;;5132724;27;2108;-42
2023/04/03 10:20:24;;;;;;;;;;;;;;;;;;5132562;27;2094;-44
2023/04/03 10:23:11;;;;;;;;;;;;;;;;;;5132572;27;1810;-41
2023/04/03 10:25:44;;;;;;;;;;;;;;;;;;5132411;27;1801;-42
2023/04/03 10:28:17;;;;;;;;;;;;;;;;;;5131168;27;1891;-41
2023/04/03 10:31:06;;;;;;;;;;;;;;;;;;5132298;27;2079;-45
2023/04/03 10:33:46;;;;;;;;;;;;;;;;;;5132165;27;2158;-42
2023/04/03 10:36:25;;;;;;;;;;;;;;;;;;5132112;27;1939;-56
2023/04/03 10:38:52;;;;;;;;;;;;;;;;;;5144494;27;1961;-60
2023/04/03 10:41:48;;;;;;;;;;;;;;;;;;5153067;27;1967;-55
2023/04/03 10:44:23;;;;;;;;;;;;;;;;;;5076349;27;2059;-60
2023/04/03 10:46:57;;;;;;;;;;;;;;;;;;5132080;27;1889;-61
2023/04/03 10:49:30;;;;;;;;;;;;;;;;;;5132047;27;1836;-55
2023/04/03 10:52:17;;;;;;;;;;;;;;;;;;5131899;27;1930;-60
2023/04/03 10:55:00;;;;;;;;;;;;;;;;;;5131050;27;1935;-57
2023/04/03 10:57:28;;;;;;;;;;;;;;;;;;5151189;27;2097;-59
2023/04/03 10:59:55;;;;;;;;;;;;;;;;;;5152627;27;2106;-60
2023/04/03 11:02:32;;;;;;;;;;;;;;;;;;5152763;27;2067;-41
2023/04/03 11:05:02;;;;;;;;;;;;;;;;;;5152412;27;1845;-44
2023/04/03 11:07:33;;;;;;;;;;;;;;;;;;5152599;27;2061;-39
2023/04/03 11:10:03;;;;;;;;;;;;;;;;;;5136482;27;2162;-42
2023/04/03 11:12:42;;;;;;;;;;;;;;;;;;5131667;28;1988;-39
2023/04/03 11:15:15;;;;;;;;;;;;;;;;;;5131815;28;2050;-45
2023/04/03 11:17:50;;;;;;;;;;;;;;;;;;5131485;28;1894;-40
2023/04/03 11:20:20;;;;;;;;;;;;;;;;;;5129672;28;2105;-41
2023/04/03 11:22:53;;;;;;;;;;;;;;;;;;5129665;28;2025;-40
2023/04/03 11:25:24;;;;;;;;;;;;;;;;;;5150255;27;2004;-42
2023/04/03 11:27:56;;;;;;;;;;;;;;;;;;5153861;27;1951;-42
2023/04/03 11:30:27;;;;;;;;;;;;;;;;;;5153665;27;2066;-41
2023/04/03 11:32:57;;;;;;;;;;;;;;;;;;5134121;27;2055;-41
2023/04/03 11:35:26;;;;;;;;;;;;;;;;;;5135930;27;1821;-41
2023/04/03 11:37:54;;;;;;;;;;;;;;;;;;5135639;27;2082;-44
2023/04/03 11:40:24;;;;;;;;;;;;;;;;;;5135420;27;1899;-48
2023/04/03 11:43:02;;;;;;;;;;;;;;;;;;5135792;27;1880;-43
2023/04/03 11:45:34;;;;;;;;;;;;;;;;;;5135234;27;2221;-44
2023/04/03 11:48:20;;;;;;;;;;;;;;;;;;5134450;27;2011;-46
2023/04/03 11:50:51;;;;;;;;;;;;;;;;;;5134997;27;1851;-41
2023/04/03 11:53:32;;;;;;;;;;;;;;;;;;5135516;27;1935;-45
2023/04/03 11:56:19;;;;;;;;;;;;;;;;;;5134894;27;1990;-41
2023/04/03 11:59:05;;;;;;;;;;;;;;;;;;5135459;27;1893;-43
2023/04/03 12:01:44;;;;;;;;;;;;;;;;;;5135175;27;2101;-40
2023/04/03 12:04:14;;;;;;;;;;;;;;;;;;5135012;27;1875;-56
2023/04/03 12:06:44;;;;;;;;;;;;;;;;;;5135407;27;1942;-40
2023/04/03 12:09:25;;;;;;;;;;;;;;;;;;5134236;27;2034;-41
2023/04/03 12:11:53;;;;;;;;;;;;;;;;;;5135242;27;1874;-40
2023/04/03 12:14:22;;;;;;;;;;;;;;;;;;5134807;27;1943;-57
2023/04/03 12:16:51;;;;;;;;;;;;;;;;;;5132876;27;1990;-39
2023/04/03 12:19:35;;;;;;;;;;;;;;;;;;5134905;27;1977;-41
2023/04/03 12:22:08;;;;;;;;;;;;;;;;;;5133164;27;1964;-41
2023/04/03 12:24:38;;;;;;;;;;;;;;;;;;5134722;27;1762;-46
2023/04/03 12:27:26;;;;;;;;;;;;;;;;;;5134404;27;1965;-41
2023/04/03 12:30:14;;;;;;;;;;;;;;;;;;5134934;27;1955;-41
2023/04/03 12:32:56;;;;;;;;;;;;;;;;;;5138379;27;2050;-40
2023/04/03 12:35:37;;;;;;;;;;;;;;;;;;5155253;27;1950;-40
2023/04/03 12:38:27;;;;;;;;;;;;;;;;;;5154495;27;1960;-41
2023/04/03 12:40:57;;;;;;;;;;;;;;;;;;5155197;27;1854;-41
2023/04/03 12:43:27;;;;;;;;;;;;;;;;;;5155156;27;2002;-46
2023/04/03 12:46:03;;;;;;;;;;;;;;;;;;5155373;27;2157;-40
2023/04/03 12:48:33;;;;;;;;;;;;;;;;;;5154734;27;1892;-38
2023/04/03 12:51:02;;;;;;;;;;;;;;;;;;5155033;27;2065;-40
2023/04/03 12:53:35;;;;;;;;;;;;;;;;;;5154901;27;1911;-41
2023/04/03 12:56:22;;;;;;;;;;;;;;;;;;5147369;27;1986;-44
2023/04/03 12:58:50;;;;;;;;;;;;;;;;;;5134232;27;1779;-43
2023/04/03 13:01:19;;;;;;;;;;;;;;;;;;5115800;27;2095;-43
2023/04/03 13:03:51;;;;;;;;;;;;;;;;;;5133796;27;2103;-41
2023/04/03 13:06:22;;;;;;;;;;;;;;;;;;5133889;27;2025;-40
2023/04/03 13:08:50;;;;;;;;;;;;;;;;;;5133907;27;1941;-38
2023/04/03 13:11:19;;;;;;;;;;;;;;;;;;5133754;27;1904;-40
2023/04/03 13:14:00;;;;;;;;;;;;;;;;;;5132732;27;2147;-53
2023/04/03 13:16:27;;;;;;;;;;;;;;;;;;5131892;27;1909;-57
2023/04/03 13:18:54;;;;;;;;;;;;;;;;;;5133299;27;2158;-42
2023/04/03 13:21:25;;;;;;;;;;;;;;;;;;5133301;27;1842;-41
2023/04/03 13:23:54;;;;;;;;;;;;;;;;;;5152684;27;1969;-37
2023/04/03 13:26:33;;;;;;;;;;;;;;;;;;5154004;27;1695;-50
2023/04/03 13:29:02;;;;;;;;;;;;;;;;;;5154390;27;1992;-40
2023/04/03 13:31:32;;;;;;;;;;;;;;;;;;5152752;27;1912;-39
2023/04/03 13:34:19;;;;;;;;;;;;;;;;;;5154567;27;1703;-39
2023/04/03 13:36:55;;;;;;;;;;;;;;;;;;5153423;27;1975;-42
2023/04/03 13:39:33;;;;;;;;;;;;;;;;;;5153418;27;1436;-40
2023/04/03 13:42:02;;;;;;;;;;;;;;;;;;5154331;27;1960;-46
2023/04/03 13:44:31;;;;;;;;;;;;;;;;;;5154201;27;1594;-45
2023/04/03 13:47:00;;;;;;;;;;;;;;;;;;5154000;27;1364;-41
2023/04/03 13:49:38;;;;;;;;;;;;;;;;;;5134500;27;2035;-40
2023/04/03 13:52:27;;;;;;;;;;;;;;;;;;5153780;27;1973;-41
2023/04/03 13:54:59;;;;;;;;;;;;;;;;;;5139575;27;2074;-41
2023/04/03 13:57:26;;;;;;;;;;;;;;;;;;5152000;27;1942;-40
2023/04/03 13:59:53;;;;;;;;;;;;;;;;;;5153834;27;2000;-41
2023/04/03 14:02:23;;;;;;;;;;;;;;;;;;5153601;27;1749;-57
2023/04/03 14:04:55;;;;;;;;;;;;;;;;;;5153638;27;2011;-56
2023/04/03 14:07:23;;;;;;;;;;;;;;;;;;5153657;27;2245;-57
2023/04/03 14:09:51;;;;;;;;;;;;;;;;;;5153518;27;1972;-55
2023/04/03 14:12:24;;;;;;;;;;;;;;;;;;5153365;27;1787;-41
2023/04/03 14:14:57;;;;;;;;;;;;;;;;;;5153056;27;1827;-40
2023/04/03 14:17:26;;;;;;;;;;;;;;;;;;5151830;27;1921;-42
2023/04/03 14:19:54;;;;;;;;;;;;;;;;;;5153209;27;1934;-40
2023/04/03 14:22:22;;;;;;;;;;;;;;;;;;5152527;27;2253;-40
2023/04/03 14:24:50;;;;;;;;;;;;;;;;;;5153271;27;1631;-46
2023/04/03 14:27:21;;;;;;;;;;;;;;;;;;5153070;27;1812;-41
2023/04/03 14:29:50;;;;;;;;;;;;;;;;;;5153121;27;1380;-45
2023/04/03 14:32:17;;;;;;;;;;;;;;;;;;5153124;27;1841;-40
2023/04/03 14:34:45;;;;;;;;;;;;;;;;;;5153093;27;1583;-40
2023/04/03 14:37:14;;;;;;;;;;;;;;;;;;5153399;27;1913;-39
2023/04/03 14:39:42;;;;;;;;;;;;;;;;;;5152064;27;2085;-40
2023/04/03 14:42:14;;;;;;;;;;;;;;;;;;5153063;27;1777;-40
2023/04/03 14:44:41;;;;;;;;;;;;;;;;;;5153192;27;1943;-41
2023/04/03 14:47:12;;;;;;;;;;;;;;;;;;5152681;27;1993;-39
2023/04/03 14:49:49;;;;;;;;;;;;;;;;;;5152928;27;1812;-40
2023/04/03 14:52:21;;;;;;;;;;;;;;;;;;5152671;27;1468;-40
2023/04/03 14:54:48;;;;;;;;;;;;;;;;;;5152951;27;1378;-41
2023/04/03 14:57:16;;;;;;;;;;;;;;;;;;5135173;27;2014;-40
2023/04/03 14:59:44;;;;;;;;;;;;;;;;;;5131306;28;1959;-41
2023/04/03 15:02:20;;;;;;;;;;;;;;;;;;5149748;27;1973;-41
2023/04/03 15:04:48;;;;;;;;;;;;;;;;;;5159554;27;1308;-48
2023/04/03 15:07:17;;;;;;;;;;;;;;;;;;5153558;27;2091;-47
2023/04/03 15:09:44;;;;;;;;;;;;;;;;;;5137978;27;2273;-39
2023/04/03 15:12:11;;;;;;;;;;;;;;;;;;5153234;27;2062;-38
2023/04/03 15:14:43;;;;;;;;;;;;;;;;;;5138848;27;2568;-41
2023/04/03 15:17:20;;;;;;;;;;;;;;;;;;5138802;27;2031;-40
2023/04/03 15:19:47;;;;;;;;;;;;;;;;;;5138803;27;1476;-40
2023/04/03 15:22:15;;;;;;;;;;;;;;;;;;5150133;27;1824;-39
2023/04/03 15:24:43;;;;;;;;;;;;;;;;;;5159500;27;1683;-40
2023/04/03 15:27:11;;;;;;;;;;;;;;;;;;5159467;27;1630;-40
2023/04/03 15:29:38;;;;;;;;;;;;;;;;;;5159372;27;1952;-40
2023/04/03 15:32:05;;;;;;;;;;;;;;;;;;5159526;27;2213;-40
2023/04/03 15:34:33;;;;;;;;;;;;;;;;;;5159562;27;2099;-42
2023/04/03 15:37:00;;;;;;;;;;;;;;;;;;5159387;27;1973;-49
2023/04/03 15:39:27;;;;;;;;;;;;;;;;;;5158022;27;1702;-40
2023/04/03 15:41:55;;;;;;;;;;;;;;;;;;5159358;27;1485;-40
2023/04/03 15:44:22;;;;;;;;;;;;;;;;;;5159113;27;1447;-44
2023/04/03 15:46:51;;;;;;;;;;;;;;;;;;5159266;27;1912;-39
2023/04/03 15:49:19;;;;;;;;;;;;;;;;;;5159240;27;1082;-40
2023/04/03 15:51:46;;;;;;;;;;;;;;;;;;5159096;27;1447;-39
2023/04/03 15:54:13;;;;;;;;;;;;;;;;;;5159281;27;2012;-39
2023/04/03 15:56:40;;;;;;;;;;;;;;;;;;5146318;27;1913;-39
2023/04/03 15:59:07;;;;;;;;;;;;;;;;;;5138524;27;2063;-43
2023/04/03 16:01:36;;;;;;;;;;;;;;;;;;5138717;27;1988;-40
2023/04/03 16:04:03;;;;;;;;;;;;;;;;;;5138749;27;2257;-40
2023/04/03 16:06:33;;;;;;;;;;;;;;;;;;5138622;27;1402;-39
2023/04/03 16:09:00;;;;;;;;;;;;;;;;;;5138030;27;1825;-40
2023/04/03 16:11:27;;;;;;;;;;;;;;;;;;5138310;27;1296;-40
2023/04/03 16:13:55;;;;;;;;;;;;;;;;;;5134890;27;1973;-43
2023/04/03 16:16:23;;;;;;;;;;;;;;;;;;5134995;27;1663;-44
2023/04/03 16:18:50;;;;;;;;;;;;;;;;;;5134991;27;2176;-48
2023/04/03 16:21:17;;;;;;;;;;;;;;;;;;5154227;27;1794;-44
2023/04/03 16:23:45;;;;;;;;;;;;;;;;;;5155763;27;1914;-48
2023/04/03 16:26:12;;;;;;;;;;;;;;;;;;5155585;27;1588;-41
2023/04/03 16:28:40;;;;;;;;;;;;;;;;;;5155768;27;1980;-46
2023/04/03 16:31:07;;;;;;;;;;;;;;;;;;5136922;27;2246;-40
2023/04/03 16:33:34;;;;;;;;;;;;;;;;;;5155681;27;1656;-40
2023/04/03 16:36:03;;;;;;;;;;;;;;;;;;5155809;27;1738;-40
2023/04/03 16:38:30;;;;;;;;;;;;;;;;;;5155139;27;2234;-43
2023/04/03 16:40:59;;;;;;;;;;;;;;;;;;5155425;27;1981;-40
2023/04/03 16:43:26;;;;;;;;;;;;;;;;;;5155370;27;1948;-40
2023/04/03 16:45:53;;;;;;;;;;;;;;;;;;5155237;27;1767;-44
2023/04/03 16:48:21;;;;;;;;;;;;;;;;;;5155101;27;1678;-41
2023/04/03 16:50:52;;;;;;;;;;;;;;;;;;5155118;27;2227;-41
2023/04/03 16:53:20;;;;;;;;;;;;;;;;;;5155045;27;1526;-43
2023/04/03 16:55:48;;;;;;;;;;;;;;;;;;5149803;27;1700;-40
2023/04/03 16:58:15;;;;;;;;;;;;;;;;;;5134108;27;1979;-41
2023/04/03 17:00:43;;;;;;;;;;;;;;;;;;5134162;27;1617;-43
2023/04/03 17:03:10;;;;;;;;;;;;;;;;;;5134181;27;1715;-39
2023/04/03 17:05:37;;;;;;;;;;;;;;;;;;5134077;27;2148;-40
2023/04/03 17:08:05;;;;;;;;;;;;;;;;;;5134167;27;1822;-40
2023/04/03 17:10:34;;;;;;;;;;;;;;;;;;5134120;27;1676;-40
2023/04/03 17:13:01;;;;;;;;;;;;;;;;;;5134278;27;1888;-40
2023/04/03 17:15:28;;;;;;;;;;;;;;;;;;5134029;27;1712;-40
2023/04/03 17:17:57;;;;;;;;;;;;;;;;;;5133869;27;2049;-40
2023/04/03 17:20:24;;;;;;;;;;;;;;;;;;5133698;27;1255;-39
2023/04/03 17:22:51;;;;;;;;;;;;;;;;;;5133889;27;1524;-40